createdAt,value
2022-08-22T00:00:24.942Z,4.65
2022-08-22T00:01:10.830Z,5.80
2022-08-22T00:02:05.250Z,6.62
2022-08-22T00:02:42.589Z,11.20
2022-08-22T00:02:44.828Z,8.63
2022-08-22T00:02:47.156Z,6.85
2022-08-22T00:02:53.912Z,8.50
2022-08-22T00:02:55.204Z,7.25
2022-08-22T00:02:55.559Z,8.73
2022-08-22T00:03:01.343Z,9.13
2022-08-22T00:03:02.491Z,9.48
2022-08-22T00:03:07.585Z,7.82
2022-08-22T00:03:09.681Z,5.03
2022-08-22T00:04:23.338Z,6.32
2022-08-22T00:05:14.144Z,5.82
2022-08-22T00:06:24.340Z,8.65
2022-08-22T00:07:08.412Z,4.60
2022-08-22T00:08:09.513Z,11.63
2022-08-22T00:08:52.658Z,6.30
2022-08-22T00:09:36.542Z,9.85
2022-08-22T00:10:25.544Z,13.32
2022-08-22T00:11:09.983Z,6.10
2022-08-22T00:12:29.516Z,4.80
2022-08-22T00:13:12.138Z,6.03
2022-08-22T00:14:20.806Z,9.13
2022-08-22T00:15:06.962Z,5.05
2022-08-22T00:15:44.724Z,5.70
2022-08-22T00:16:28.966Z,7.15
2022-08-22T00:17:04.892Z,8.00
2022-08-22T00:17:53.302Z,5.45
2022-08-22T00:18:38.823Z,7.47
2022-08-22T00:19:44.547Z,5.97
2022-08-22T00:20:41.532Z,6.97
2022-08-22T00:21:26.210Z,6.80
2022-08-22T00:22:51.245Z,6.37
2022-08-22T00:23:55.745Z,8.82
2022-08-22T00:25:07.396Z,5.05
2022-08-22T00:26:06.943Z,6.47
2022-08-22T00:26:53.550Z,5.10
2022-08-22T00:27:53.493Z,6.43
2022-08-22T00:28:28.876Z,7.97
2022-08-22T00:29:19.599Z,8.13
2022-08-22T00:30:32.754Z,7.70
2022-08-22T00:31:13.804Z,5.40
2022-08-22T00:32:15.872Z,6.93
2022-08-22T00:33:02.577Z,7.43
2022-08-22T00:33:45.876Z,12.50
2022-08-22T00:34:22.426Z,6.75
2022-08-22T00:35:02.655Z,7.47
2022-08-22T00:35:48.261Z,5.82
2022-08-22T00:36:33.693Z,7.15
2022-08-22T00:37:17.012Z,7.90
2022-08-22T00:38:09.298Z,10.07
2022-08-22T00:38:52.141Z,8.63
2022-08-22T00:39:43.795Z,7.22
2022-08-22T00:40:24.897Z,9.32
2022-08-22T00:42:29.393Z,4.07
2022-08-22T00:43:11.467Z,7.20
2022-08-22T00:43:49.144Z,5.85
2022-08-22T00:44:36.191Z,8.15
2022-08-22T00:45:29.290Z,4.68
2022-08-22T00:46:34.158Z,6.87
2022-08-22T00:47:45.048Z,6.25
2022-08-22T00:48:32.800Z,6.03
2022-08-22T00:49:23.030Z,6.70
2022-08-22T00:50:12.751Z,5.25
2022-08-22T00:50:50.552Z,6.43
2022-08-22T00:51:54.977Z,9.23
2022-08-22T00:52:47.063Z,8.73
2022-08-22T00:53:27.514Z,11.73
2022-08-22T00:54:47.032Z,12.52
2022-08-22T00:56:03.217Z,9.50
2022-08-22T00:56:38.409Z,5.35
2022-08-22T00:57:22.460Z,8.43
2022-08-22T00:58:06.446Z,8.48
2022-08-22T00:59:23.074Z,10.18
2022-08-22T01:00:09.427Z,4.55
2022-08-22T01:00:54.476Z,8.15
2022-08-22T01:01:32.545Z,8.15
2022-08-22T01:02:21.827Z,6.37
2022-08-22T01:03:16.795Z,10.82
2022-08-22T01:04:07.552Z,9.13
2022-08-22T01:04:58.401Z,5.65
2022-08-22T01:05:42.252Z,7.12
2022-08-22T01:06:23.268Z,7.65
2022-08-22T01:06:57.699Z,7.75
2022-08-22T01:07:44.049Z,14.50
2022-08-22T01:08:37.797Z,6.82
2022-08-22T01:09:15.998Z,7.25
2022-08-22T01:09:50.658Z,4.90
2022-08-22T01:11:01.396Z,6.12
2022-08-22T01:12:11.909Z,6.55
2022-08-22T01:12:53.182Z,7.33
2022-08-22T01:13:50.501Z,7.75
2022-08-22T01:14:37.963Z,5.57
2022-08-22T01:15:16.501Z,8.95
2022-08-22T01:15:53.454Z,6.22
2022-08-22T01:17:00.821Z,4.45
2022-08-22T01:17:32.712Z,6.22
2022-08-22T01:18:40.281Z,5.85
2022-08-22T01:19:33.038Z,5.95
2022-08-22T01:20:30.685Z,7.60
2022-08-22T01:21:28.568Z,9.02
2022-08-22T01:22:12.294Z,7.03
2022-08-22T01:22:59.278Z,9.48
2022-08-22T01:23:37.070Z,7.75
2022-08-22T01:24:31.100Z,7.72
2022-08-22T01:25:22.342Z,7.60
2022-08-22T01:26:23.015Z,7.78
2022-08-22T01:26:57.971Z,10.43
2022-08-22T01:27:44.919Z,9.63
2022-08-22T01:28:23.264Z,8.43
2022-08-22T01:29:14.622Z,6.25
2022-08-22T01:30:13.101Z,10.55
2022-08-22T01:30:57.056Z,10.43
2022-08-22T01:31:47.444Z,5.97
2022-08-22T01:32:56.814Z,8.18
2022-08-22T01:34:06.421Z,7.43
2022-08-22T01:34:54.431Z,4.60
2022-08-22T01:35:58.600Z,9.55
2022-08-22T01:36:57.984Z,7.68
2022-08-22T01:37:45.678Z,6.22
2022-08-22T01:38:42.010Z,6.75
2022-08-22T01:39:35.704Z,9.48
2022-08-22T01:40:19.796Z,5.90
2022-08-22T01:41:31.082Z,8.18
2022-08-22T01:42:05.783Z,4.87
2022-08-22T01:42:46.458Z,5.43
2022-08-22T01:44:22.177Z,7.03
2022-08-22T01:45:15.076Z,9.48
2022-08-22T01:46:01.586Z,6.43
2022-08-22T01:46:44.994Z,6.40
2022-08-22T01:47:28.847Z,6.93
2022-08-22T01:48:14.297Z,6.07
2022-08-22T01:48:52.980Z,6.68
2022-08-22T01:49:37.511Z,6.57
2022-08-22T01:50:33.348Z,5.80
2022-08-22T01:51:33.264Z,6.80
2022-08-22T01:52:15.426Z,8.75
2022-08-22T01:53:16.273Z,8.18
2022-08-22T01:53:48.122Z,5.97
2022-08-22T01:54:45.312Z,8.23
2022-08-22T01:55:23.063Z,10.50
2022-08-22T01:56:21.485Z,5.95
2022-08-22T01:57:02.281Z,8.82
2022-08-22T01:58:01.100Z,5.97
2022-08-22T01:58:37.452Z,5.60
2022-08-22T01:59:15.922Z,7.75
2022-08-22T02:00:07.094Z,7.37
2022-08-22T02:01:20.471Z,9.13
2022-08-22T02:02:09.269Z,6.30
2022-08-22T02:02:53.331Z,9.07
2022-08-22T02:03:42.749Z,8.20
2022-08-22T02:04:17.758Z,6.55
2022-08-22T02:04:52.453Z,4.10
2022-08-22T02:05:33.693Z,8.90
2022-08-22T02:06:14.631Z,6.18
2022-08-22T02:07:31.567Z,9.38
2022-08-22T02:08:28.585Z,9.23
2022-08-22T02:09:41.950Z,7.15
2022-08-22T02:10:40.471Z,11.27
2022-08-22T02:11:35.156Z,10.50
2022-08-22T02:12:22.269Z,7.28
2022-08-22T02:13:05.849Z,10.95
2022-08-22T02:13:52.018Z,6.75
2022-08-22T02:14:44.125Z,10.05
2022-08-22T02:15:18.699Z,8.07
2022-08-22T02:16:06.712Z,9.60
2022-08-22T02:16:46.103Z,10.40
2022-08-22T02:17:28.308Z,6.12
2022-08-22T02:19:00.312Z,7.85
2022-08-22T02:19:44.673Z,7.03
2022-08-22T02:20:28.776Z,9.68
2022-08-22T02:21:13.899Z,11.50
2022-08-22T02:22:25.809Z,15.35
2022-08-22T02:23:25.011Z,8.70
2022-08-22T02:24:03.469Z,6.43
2022-08-22T02:24:53.424Z,5.78
2022-08-22T02:25:47.118Z,8.80
2022-08-22T02:26:47.714Z,7.85
2022-08-22T02:27:49.233Z,5.65
2022-08-22T02:28:32.441Z,12.60
2022-08-22T02:29:14.264Z,10.05
2022-08-22T02:30:17.039Z,8.00
2022-08-22T02:31:00.584Z,7.62
2022-08-22T02:31:40.327Z,10.05
2022-08-22T02:32:46.970Z,11.18
2022-08-22T02:33:36.633Z,11.50
2022-08-22T02:34:37.861Z,7.35
2022-08-22T02:35:12.684Z,7.60
2022-08-22T02:35:54.674Z,10.93
2022-08-22T02:36:40.706Z,8.88
2022-08-22T02:37:30.057Z,8.13
2022-08-22T02:38:41.033Z,8.07
2022-08-22T02:39:28.031Z,9.73
2022-08-22T02:40:15.310Z,6.68
2022-08-22T02:41:00.498Z,7.25
2022-08-22T02:41:47.396Z,9.77
2022-08-22T02:42:46.717Z,7.95
2022-08-22T02:43:35.790Z,6.75
2022-08-22T02:44:21.144Z,7.47
2022-08-22T02:45:06.009Z,6.75
2022-08-22T02:45:45.909Z,8.40
2022-08-22T02:46:24.097Z,7.12
2022-08-22T02:47:05.567Z,9.90
2022-08-22T02:47:57.357Z,11.30
2022-08-22T02:48:58.745Z,10.50
2022-08-22T02:49:36.042Z,6.97
2022-08-22T02:50:47.592Z,10.98
2022-08-22T02:51:36.042Z,9.13
2022-08-22T02:52:18.885Z,7.40
2022-08-22T02:53:17.303Z,12.05
2022-08-22T02:54:09.038Z,8.98
2022-08-22T02:55:06.511Z,8.80
2022-08-22T02:56:03.927Z,9.18
2022-08-22T02:56:43.169Z,9.77
2022-08-22T02:57:39.342Z,9.25
2022-08-22T02:58:29.174Z,8.50
2022-08-22T02:59:16.597Z,7.05
2022-08-22T03:00:31.189Z,8.45
2022-08-22T03:01:36.550Z,10.45
2022-08-22T03:02:27.760Z,9.57
2022-08-22T03:03:00.953Z,8.90
2022-08-22T03:03:38.791Z,9.10
2022-08-22T03:04:42.937Z,7.40
2022-08-22T03:05:17.519Z,10.23
2022-08-22T03:06:01.072Z,10.73
2022-08-22T03:06:39.556Z,8.63
2022-08-22T03:07:20.505Z,7.53
2022-08-22T03:08:17.153Z,11.10
2022-08-22T03:09:16.667Z,6.70
2022-08-22T03:10:18.052Z,6.43
2022-08-22T03:12:18.243Z,8.95
2022-08-22T03:13:10.989Z,9.85
2022-08-22T03:14:04.466Z,11.40
2022-08-22T03:14:47.487Z,6.28
2022-08-22T03:15:28.043Z,13.23
2022-08-22T03:16:10.516Z,8.50
2022-08-22T03:17:00.897Z,7.25
2022-08-22T03:17:56.822Z,13.85
2022-08-22T03:18:31.617Z,10.75
2022-08-22T03:19:03.499Z,10.20
2022-08-22T03:20:00.460Z,10.52
2022-08-22T03:21:14.758Z,8.23
2022-08-22T03:22:01.251Z,13.75
2022-08-22T03:23:13.095Z,10.90
2022-08-22T03:24:31.769Z,9.00
2022-08-22T03:25:27.073Z,7.62
2022-08-22T03:26:26.879Z,6.80
2022-08-22T03:27:14.283Z,13.57
2022-08-22T03:28:11.745Z,8.15
2022-08-22T03:29:00.005Z,5.65
2022-08-22T03:29:44.849Z,8.82
2022-08-22T03:30:21.844Z,10.20
2022-08-22T03:31:01.477Z,8.25
2022-08-22T03:31:33.544Z,7.35
2022-08-22T03:32:10.574Z,7.95
2022-08-22T03:33:19.891Z,9.57
2022-08-22T03:34:22.988Z,6.60
2022-08-22T03:35:04.886Z,7.82
2022-08-22T03:36:13.745Z,10.75
2022-08-22T03:37:23.199Z,6.00
2022-08-22T03:38:11.141Z,8.73
2022-08-22T03:38:49.938Z,6.03
2022-08-22T03:39:43.631Z,10.48
2022-08-22T03:40:31.767Z,9.40
2022-08-22T03:41:12.701Z,6.62
2022-08-22T03:42:40.906Z,8.93
2022-08-22T03:43:28.492Z,8.93
2022-08-22T03:44:12.690Z,8.27
2022-08-22T03:44:59.757Z,9.18
2022-08-22T03:45:43.203Z,6.37
2022-08-22T03:46:46.035Z,8.75
2022-08-22T03:47:23.520Z,11.00
2022-08-22T03:48:04.399Z,8.52
2022-08-22T03:48:45.320Z,8.57
2022-08-22T03:50:00.169Z,12.07
2022-08-22T03:50:56.548Z,11.70
2022-08-22T03:52:05.110Z,10.02
2022-08-22T03:53:10.418Z,8.73
2022-08-22T03:54:10.211Z,7.78
2022-08-22T03:55:05.090Z,8.45
2022-08-22T03:55:55.318Z,9.57
2022-08-22T03:57:14.769Z,7.62
2022-08-22T03:57:52.502Z,7.32
2022-08-22T03:58:33.316Z,10.27
2022-08-22T03:59:17.484Z,15.07
2022-08-22T04:00:05.240Z,10.45
2022-08-22T04:00:59.901Z,8.02
2022-08-22T04:01:58.644Z,8.82
2022-08-22T04:02:43.984Z,7.22
2022-08-22T04:03:38.304Z,10.00
2022-08-22T04:04:40.979Z,7.68
2022-08-22T04:05:14.263Z,8.93
2022-08-22T04:06:27.336Z,11.65
2022-08-22T04:07:46.514Z,10.93
2022-08-22T04:08:46.003Z,10.98
2022-08-22T04:09:43.928Z,9.57
2022-08-22T04:10:33.956Z,7.05
2022-08-22T04:11:36.383Z,8.73
2022-08-22T04:12:43.171Z,9.05
2022-08-22T04:13:52.808Z,9.23
2022-08-22T04:14:58.632Z,7.00
2022-08-22T04:15:42.519Z,12.20
2022-08-22T04:16:41.130Z,12.07
2022-08-22T04:18:06.959Z,11.63
2022-08-22T04:19:08.190Z,34.95
2022-08-22T04:19:49.155Z,11.82
2022-08-22T04:20:56.739Z,8.45
2022-08-22T04:22:11.408Z,9.55
2022-08-22T04:23:03.528Z,11.38
2022-08-22T04:23:44.721Z,15.00
2022-08-22T04:24:34.211Z,11.68
2022-08-22T04:25:23.416Z,11.00
2022-08-22T04:26:11.898Z,16.02
2022-08-22T04:27:05.993Z,6.95
2022-08-22T04:27:55.867Z,14.80
2022-08-22T04:28:43.387Z,8.13
2022-08-22T04:29:32.245Z,9.32
2022-08-22T04:30:32.956Z,10.48
2022-08-22T04:31:15.107Z,8.75
2022-08-22T04:32:22.096Z,8.50
2022-08-22T04:33:37.977Z,8.50
2022-08-22T04:34:22.415Z,8.65
2022-08-22T04:35:02.371Z,10.35
2022-08-22T04:35:55.367Z,14.18
2022-08-22T04:36:35.457Z,11.43
2022-08-22T04:37:17.964Z,9.15
2022-08-22T04:38:01.926Z,14.90
2022-08-22T04:38:48.827Z,10.85
2022-08-22T04:39:30.077Z,12.10
2022-08-22T04:40:11.463Z,12.85
2022-08-22T04:41:02.598Z,12.02
2022-08-22T04:42:31.290Z,12.35
2022-08-22T04:43:17.924Z,11.93
2022-08-22T04:44:05.745Z,10.73
2022-08-22T04:44:52.566Z,13.95
2022-08-22T04:45:51.600Z,12.10
2022-08-22T04:46:47.315Z,13.68
2022-08-22T04:47:37.537Z,14.90
2022-08-22T04:48:36.539Z,15.95
2022-08-22T04:49:24.838Z,14.45
2022-08-22T04:50:26.361Z,13.40
2022-08-22T04:51:05.455Z,13.70
2022-08-22T04:51:51.237Z,13.43
2022-08-22T04:52:49.270Z,12.40
2022-08-22T04:53:47.039Z,21.40
2022-08-22T04:54:32.916Z,13.32
2022-08-22T04:55:33.071Z,13.80
2022-08-22T04:56:47.924Z,12.13
2022-08-22T04:57:29.150Z,15.50
2022-08-22T04:58:22.237Z,18.98
2022-08-22T04:59:04.754Z,12.60
2022-08-22T04:59:37.167Z,14.38
2022-08-22T05:00:11.626Z,17.05
2022-08-22T05:01:07.671Z,13.75
2022-08-22T05:01:55.710Z,14.02
2022-08-22T05:02:28.220Z,16.42
2022-08-22T05:03:03.406Z,13.13
2022-08-22T05:03:45.060Z,18.40
2022-08-22T05:04:26.666Z,15.90
2022-08-22T05:05:13.240Z,14.27
2022-08-22T05:05:49.630Z,13.82
2022-08-22T05:06:26.569Z,12.55
2022-08-22T05:07:24.052Z,13.13
2022-08-22T05:08:00.566Z,12.77
2022-08-22T05:08:36.189Z,11.55
2022-08-22T05:09:16.472Z,16.58
2022-08-22T05:10:10.536Z,13.90
2022-08-22T05:10:47.087Z,13.57
2022-08-22T05:11:22.273Z,16.27
2022-08-22T05:12:01.034Z,12.70
2022-08-22T05:12:38.409Z,13.77
2022-08-22T05:13:18.287Z,14.68
2022-08-22T05:14:37.805Z,13.68
2022-08-22T05:15:23.249Z,10.60
2022-08-22T05:15:59.729Z,15.35
2022-08-22T05:16:40.765Z,12.70
2022-08-22T05:17:55.800Z,14.95
2022-08-22T05:18:43.624Z,12.82
2022-08-22T05:19:28.451Z,12.60
2022-08-22T05:20:09.054Z,12.32
2022-08-22T05:20:45.260Z,11.05
2022-08-22T05:21:23.372Z,15.57
2022-08-22T05:22:00.897Z,11.93
2022-08-22T05:22:40.021Z,13.70
2022-08-22T05:23:19.039Z,13.85
2022-08-22T05:24:11.624Z,13.32
2022-08-22T05:24:48.509Z,14.32
2022-08-22T05:25:36.317Z,17.70
2022-08-22T05:26:11.045Z,11.98
2022-08-22T05:26:50.481Z,14.82
2022-08-22T05:27:31.552Z,13.05
2022-08-22T05:28:20.750Z,14.82
2022-08-22T05:29:02.059Z,15.98
2022-08-22T05:29:34.685Z,12.93
2022-08-22T05:30:16.251Z,12.13
2022-08-22T05:30:48.934Z,16.20
2022-08-22T05:31:30.107Z,11.25
2022-08-22T05:32:11.067Z,18.37
2022-08-22T05:32:54.608Z,16.17
2022-08-22T05:33:46.760Z,12.02
2022-08-22T05:34:26.568Z,14.15
2022-08-22T05:35:02.128Z,14.77
2022-08-22T05:35:46.035Z,12.63
2022-08-22T05:36:32.469Z,10.95
2022-08-22T05:37:20.805Z,11.60
2022-08-22T05:37:56.002Z,15.93
2022-08-22T05:38:34.492Z,10.63
2022-08-22T05:39:13.391Z,12.00
2022-08-22T05:39:49.812Z,12.55
2022-08-22T05:40:28.198Z,13.62
2022-08-22T05:41:07.358Z,13.85
2022-08-22T05:41:41.147Z,11.18
2022-08-22T05:42:26.485Z,13.77
2022-08-22T05:42:59.048Z,15.18
2022-08-22T05:43:34.955Z,17.83
2022-08-22T05:44:34.274Z,12.80
2022-08-22T05:45:12.287Z,11.15
2022-08-22T05:45:47.397Z,15.38
2022-08-22T05:46:27.272Z,14.93
2022-08-22T05:47:14.104Z,14.30
2022-08-22T05:48:03.344Z,16.27
2022-08-22T05:48:43.629Z,16.92
2022-08-22T05:49:49.749Z,15.45
2022-08-22T05:50:34.808Z,17.12
2022-08-22T05:51:21.707Z,19.45
2022-08-22T05:52:25.628Z,15.05
2022-08-22T05:53:10.182Z,13.65
2022-08-22T05:53:48.458Z,13.82
2022-08-22T05:54:33.888Z,10.60
2022-08-22T05:55:27.135Z,13.45
2022-08-22T05:56:08.793Z,14.90
2022-08-22T05:57:10.415Z,13.90
2022-08-22T05:57:48.542Z,20.23
2022-08-22T05:58:42.709Z,15.65
2022-08-22T05:59:43.746Z,13.75
2022-08-22T06:00:22.090Z,14.48
2022-08-22T06:01:03.374Z,16.12
2022-08-22T06:02:07.707Z,16.08
2022-08-22T06:02:56.187Z,12.25
2022-08-22T06:03:38.897Z,12.93
2022-08-22T06:04:39.202Z,16.20
2022-08-22T06:05:12.416Z,16.77
2022-08-22T06:05:50.040Z,16.95
2022-08-22T06:06:25.540Z,14.85
2022-08-22T06:07:05.085Z,17.48
2022-08-22T06:07:49.353Z,17.98
2022-08-22T06:08:48.642Z,17.15
2022-08-22T06:09:43.729Z,16.42
2022-08-22T06:10:25.870Z,17.17
2022-08-22T06:11:04.379Z,15.07
2022-08-22T06:11:47.302Z,15.85
2022-08-22T06:12:26.513Z,16.85
2022-08-22T06:13:41.500Z,13.40
2022-08-22T06:14:40.659Z,18.25
2022-08-22T06:15:27.578Z,17.35
2022-08-22T06:16:01.556Z,14.30
2022-08-22T06:16:47.314Z,15.90
2022-08-22T06:17:25.921Z,14.98
2022-08-22T06:18:03.415Z,15.80
2022-08-22T06:18:38.491Z,17.58
2022-08-22T06:19:19.971Z,17.27
2022-08-22T06:19:54.210Z,14.25
2022-08-22T06:20:37.454Z,14.40
2022-08-22T06:21:21.064Z,14.52
2022-08-22T06:21:55.077Z,14.50
2022-08-22T06:22:31.375Z,15.57
2022-08-22T06:23:07.388Z,16.08
2022-08-22T06:23:53.253Z,18.15
2022-08-22T06:24:27.676Z,18.48
2022-08-22T06:25:27.758Z,19.33
2022-08-22T06:26:01.443Z,16.37
2022-08-22T06:26:40.243Z,17.20
2022-08-22T06:27:16.220Z,21.55
2022-08-22T06:27:50.891Z,14.98
2022-08-22T06:28:26.559Z,19.35
2022-08-22T06:29:01.079Z,17.42
2022-08-22T06:29:36.246Z,19.25
2022-08-22T06:30:12.858Z,14.52
2022-08-22T06:30:46.205Z,15.95
2022-08-22T06:31:28.017Z,16.95
2022-08-22T06:32:04.174Z,15.35
2022-08-22T06:32:59.985Z,16.67
2022-08-22T06:33:38.516Z,15.05
2022-08-22T06:34:24.612Z,14.27
2022-08-22T06:35:10.665Z,18.35
2022-08-22T06:36:07.936Z,14.65
2022-08-22T06:36:44.503Z,19.23
2022-08-22T06:37:34.237Z,14.32
2022-08-22T06:38:06.477Z,13.25
2022-08-22T06:39:08.117Z,18.27
2022-08-22T06:39:44.144Z,17.12
2022-08-22T06:40:17.800Z,13.95
2022-08-22T06:40:54.447Z,21.00
2022-08-22T06:41:30.315Z,15.73
2022-08-22T06:42:12.235Z,17.62
2022-08-22T06:42:50.975Z,13.77
2022-08-22T06:43:24.982Z,17.35
2022-08-22T06:43:59.215Z,15.15
2022-08-22T06:44:35.885Z,14.45
2022-08-22T06:45:10.786Z,15.40
2022-08-22T06:45:43.025Z,15.80
2022-08-22T06:46:18.894Z,15.85
2022-08-22T06:46:54.099Z,15.68
2022-08-22T06:47:33.602Z,13.82
2022-08-22T06:48:05.606Z,16.52
2022-08-22T06:48:38.272Z,17.05
2022-08-22T06:49:11.986Z,13.70
2022-08-22T06:49:45.755Z,17.17
2022-08-22T06:50:45.495Z,15.80
2022-08-22T06:51:20.372Z,14.77
2022-08-22T06:52:03.250Z,17.48
2022-08-22T06:53:07.529Z,16.12
2022-08-22T06:53:48.257Z,16.35
2022-08-22T06:54:28.681Z,21.80
2022-08-22T06:55:07.459Z,15.82
2022-08-22T06:55:43.437Z,16.10
2022-08-22T06:56:25.621Z,18.50
2022-08-22T06:56:58.038Z,14.90
2022-08-22T06:57:36.142Z,18.23
2022-08-22T06:58:21.769Z,17.80
2022-08-22T06:58:57.369Z,15.75
2022-08-22T06:59:32.694Z,14.77
2022-08-22T07:00:13.290Z,15.90
2022-08-22T07:00:53.525Z,15.48
2022-08-22T07:01:46.597Z,17.45
2022-08-22T07:02:41.271Z,18.00
2022-08-22T07:03:35.199Z,19.15
2022-08-22T07:04:10.279Z,16.67
2022-08-22T07:04:42.851Z,18.95
2022-08-22T07:05:39.656Z,13.90
2022-08-22T07:06:39.215Z,14.32
2022-08-22T07:07:11.175Z,17.30
2022-08-22T07:07:43.365Z,15.98
2022-08-22T07:08:19.914Z,19.42
2022-08-22T07:08:55.904Z,17.92
2022-08-22T07:09:34.747Z,15.38
2022-08-22T07:10:07.367Z,17.48
2022-08-22T07:10:55.744Z,15.88
2022-08-22T07:11:31.199Z,14.10
2022-08-22T07:12:11.093Z,13.30
2022-08-22T07:12:50.902Z,13.60
2022-08-22T07:13:25.275Z,10.87
2022-08-22T07:14:08.203Z,13.48
2022-08-22T07:14:45.000Z,14.70
2022-08-22T07:15:32.479Z,10.77
2022-08-22T07:16:08.389Z,14.43
2022-08-22T07:16:58.029Z,16.33
2022-08-22T07:17:32.824Z,16.55
2022-08-22T07:18:08.888Z,13.70
2022-08-22T07:18:50.423Z,16.62
2022-08-22T07:19:30.510Z,15.65
2022-08-22T07:20:27.003Z,15.60
2022-08-22T07:21:07.315Z,14.02
2022-08-22T07:21:45.829Z,14.05
2022-08-22T07:22:26.955Z,12.63
2022-08-22T07:23:02.950Z,16.50
2022-08-22T07:23:40.542Z,12.85
2022-08-22T07:24:26.028Z,16.65
2022-08-22T07:25:11.121Z,15.30
2022-08-22T07:25:52.642Z,15.88
2022-08-22T07:26:24.785Z,17.67
2022-08-22T07:27:39.972Z,16.58
2022-08-22T07:28:51.247Z,18.00
2022-08-22T07:29:59.025Z,15.10
2022-08-22T07:31:02.006Z,17.58
2022-08-22T07:31:57.984Z,15.13
2022-08-22T07:32:42.053Z,15.18
2022-08-22T07:33:51.710Z,14.73
2022-08-22T07:34:32.413Z,19.35
2022-08-22T07:35:21.693Z,16.90
2022-08-22T07:36:01.725Z,21.75
2022-08-22T07:36:39.474Z,18.60
2022-08-22T07:37:28.165Z,19.90
2022-08-22T07:38:32.751Z,17.12
2022-08-22T07:39:37.582Z,16.90
2022-08-22T07:40:28.301Z,15.80
2022-08-22T07:41:15.629Z,16.55
2022-08-22T07:41:59.603Z,16.23
2022-08-22T07:42:43.552Z,16.12
2022-08-22T07:43:40.422Z,16.60
2022-08-22T07:44:23.154Z,18.08
2022-08-22T07:45:09.354Z,19.83
2022-08-22T07:45:52.189Z,18.73
2022-08-22T07:46:35.147Z,19.05
2022-08-22T07:47:12.654Z,17.73
2022-08-22T07:48:08.286Z,17.65
2022-08-22T07:49:08.163Z,21.37
2022-08-22T07:49:59.902Z,15.30
2022-08-22T07:51:15.388Z,17.12
2022-08-22T07:51:59.296Z,16.70
2022-08-22T07:52:44.816Z,20.83
2022-08-22T07:53:25.381Z,13.48
2022-08-22T07:54:02.588Z,19.27
2022-08-22T07:54:45.524Z,16.17
2022-08-22T07:55:24.050Z,18.65
2022-08-22T07:55:58.645Z,19.37
2022-08-22T07:56:57.734Z,17.50
2022-08-22T07:57:32.670Z,18.75
2022-08-22T07:58:07.956Z,17.30
2022-08-22T07:58:42.435Z,19.77
2022-08-22T07:59:18.963Z,24.02
2022-08-22T07:59:56.677Z,19.83
2022-08-22T08:00:31.562Z,21.25
2022-08-22T08:01:03.966Z,23.70
2022-08-22T08:01:37.722Z,17.33
2022-08-22T08:02:14.116Z,16.77
2022-08-22T08:02:51.037Z,18.05
2022-08-22T08:03:25.732Z,17.85
2022-08-22T08:04:04.883Z,16.30
2022-08-22T08:04:40.594Z,16.10
2022-08-22T08:05:15.196Z,20.27
2022-08-22T08:05:47.539Z,17.80
2022-08-22T08:06:23.338Z,18.80
2022-08-22T08:06:59.864Z,19.35
2022-08-22T08:07:32.493Z,18.77
2022-08-22T08:08:25.890Z,15.52
2022-08-22T08:08:58.432Z,20.70
2022-08-22T08:09:34.626Z,18.90
2022-08-22T08:10:14.390Z,16.58
2022-08-22T08:10:50.755Z,20.83
2022-08-22T08:11:26.495Z,15.88
2022-08-22T08:12:00.513Z,18.20
2022-08-22T08:12:39.928Z,19.90
2022-08-22T08:13:21.917Z,15.85
2022-08-22T08:13:59.343Z,15.20
2022-08-22T08:14:35.786Z,14.38
2022-08-22T08:15:12.509Z,18.62
2022-08-22T08:15:45.886Z,14.68
2022-08-22T08:16:21.449Z,17.92
2022-08-22T08:17:00.886Z,17.27
2022-08-22T08:17:35.732Z,19.60
2022-08-22T08:18:21.957Z,16.17
2022-08-22T08:18:58.019Z,16.15
2022-08-22T08:19:33.456Z,14.65
2022-08-22T08:20:11.919Z,17.05
2022-08-22T08:20:43.942Z,12.15
2022-08-22T08:21:39.120Z,20.35
2022-08-22T08:22:22.971Z,12.60
2022-08-22T08:22:56.548Z,13.02
2022-08-22T08:23:39.069Z,15.30
2022-08-22T08:24:16.362Z,11.23
2022-08-22T08:24:50.756Z,11.32
2022-08-22T08:25:27.541Z,17.67
2022-08-22T08:26:07.135Z,12.65
2022-08-22T08:27:03.935Z,16.45
2022-08-22T08:27:57.943Z,19.23
2022-08-22T08:28:37.573Z,13.38
2022-08-22T08:29:09.752Z,16.92
2022-08-22T08:29:56.351Z,12.93
2022-08-22T08:30:45.513Z,13.57
2022-08-22T08:31:27.799Z,15.45
2022-08-22T08:32:01.322Z,11.43
2022-08-22T08:32:37.662Z,17.73
2022-08-22T08:33:25.449Z,14.57
2022-08-22T08:34:06.601Z,14.05
2022-08-22T08:34:40.198Z,14.98
2022-08-22T08:35:25.682Z,17.05
2022-08-22T08:36:06.172Z,19.05
2022-08-22T08:36:52.492Z,16.77
2022-08-22T08:37:33.371Z,14.65
2022-08-22T08:38:59.915Z,13.85
2022-08-22T08:39:35.028Z,17.37
2022-08-22T08:40:26.260Z,15.48
2022-08-22T08:41:10.242Z,18.75
2022-08-22T08:42:15.769Z,11.38
2022-08-22T08:43:29.828Z,17.25
2022-08-22T08:44:17.121Z,12.40
2022-08-22T08:45:09.162Z,13.25
2022-08-22T08:45:41.083Z,12.73
2022-08-22T08:46:14.285Z,16.02
2022-08-22T08:47:01.221Z,16.08
2022-08-22T08:47:33.071Z,14.65
2022-08-22T08:48:29.660Z,12.60
2022-08-22T08:49:35.033Z,15.40
2022-08-22T08:50:34.650Z,13.40
2022-08-22T08:51:15.766Z,15.88
2022-08-22T08:51:53.783Z,13.68
2022-08-22T08:53:27.744Z,15.88
2022-08-22T08:54:40.529Z,15.85
2022-08-22T08:55:59.143Z,14.52
2022-08-22T08:57:20.694Z,15.93
2022-08-22T08:58:12.950Z,13.98
2022-08-22T08:59:04.296Z,16.25
2022-08-22T09:00:18.066Z,12.55
2022-08-22T09:01:02.313Z,10.45
2022-08-22T09:01:40.275Z,14.98
2022-08-22T09:03:47.162Z,13.07
2022-08-22T09:04:44.401Z,12.27
2022-08-22T09:06:33.266Z,11.15
2022-08-22T09:07:42.956Z,9.98
2022-08-22T09:08:52.686Z,10.38
2022-08-22T09:09:46.267Z,11.55
2022-08-22T09:10:51.022Z,13.50
2022-08-22T09:11:44.451Z,11.32
2022-08-22T09:12:19.152Z,12.32
2022-08-22T09:13:20.540Z,9.75
2022-08-22T09:14:16.493Z,13.73
2022-08-22T09:15:14.622Z,9.52
2022-08-22T09:16:15.750Z,11.65
2022-08-22T09:17:15.900Z,12.77
2022-08-22T09:18:20.248Z,11.43
2022-08-22T09:18:58.453Z,13.23
2022-08-22T09:19:36.009Z,10.68
2022-08-22T09:20:32.806Z,13.07
2022-08-22T09:21:31.492Z,11.73
2022-08-22T09:22:50.870Z,11.23
2022-08-22T09:23:53.193Z,11.60
2022-08-22T09:24:47.012Z,12.27
2022-08-22T09:25:40.467Z,17.15
2022-08-22T09:27:03.798Z,12.95
2022-08-22T09:27:46.410Z,10.30
2022-08-22T09:28:29.244Z,11.43
2022-08-22T09:29:24.830Z,14.75
2022-08-22T09:30:11.534Z,13.65
2022-08-22T09:30:54.138Z,12.02
2022-08-22T09:31:44.941Z,10.30
2022-08-22T09:32:42.768Z,15.80
2022-08-22T09:33:20.332Z,13.80
2022-08-22T09:34:23.850Z,10.50
2022-08-22T09:35:18.674Z,13.20
2022-08-22T09:35:53.527Z,11.57
2022-08-22T09:36:31.303Z,12.02
2022-08-22T09:37:35.186Z,12.68
2022-08-22T09:38:48.674Z,12.45
2022-08-22T09:39:59.707Z,14.80
2022-08-22T09:40:44.445Z,13.85
2022-08-22T09:41:43.848Z,20.52
2022-08-22T09:42:46.406Z,15.10
2022-08-22T09:43:23.919Z,14.18
2022-08-22T09:44:19.436Z,16.83
2022-08-22T09:45:05.482Z,17.25
2022-08-22T09:45:45.433Z,14.98
2022-08-22T09:46:53.494Z,15.07
2022-08-22T09:47:32.634Z,14.87
2022-08-22T09:48:38.771Z,15.95
2022-08-22T09:49:23.505Z,14.23
2022-08-22T09:50:30.839Z,17.98
2022-08-22T09:51:31.871Z,18.45
2022-08-22T09:52:14.535Z,16.05
2022-08-22T09:53:06.128Z,14.60
2022-08-22T09:54:14.225Z,18.08
2022-08-22T09:55:11.814Z,19.35
2022-08-22T09:56:00.993Z,14.90
2022-08-22T09:57:01.371Z,14.30
2022-08-22T09:57:43.976Z,18.87
2022-08-22T09:58:52.869Z,15.10
2022-08-22T09:59:31.686Z,16.80
2022-08-22T10:00:05.589Z,17.48
2022-08-22T10:00:54.540Z,17.02
2022-08-22T10:02:16.828Z,18.80
2022-08-22T10:03:21.957Z,13.62
2022-08-22T10:04:19.553Z,17.80
2022-08-22T10:05:07.148Z,16.55
2022-08-22T10:05:52.882Z,17.77
2022-08-22T10:06:43.373Z,16.23
2022-08-22T10:07:51.539Z,18.35
2022-08-22T10:08:54.094Z,17.42
2022-08-22T10:09:55.013Z,16.37
2022-08-22T10:10:36.886Z,20.35
2022-08-22T10:11:19.509Z,16.23
2022-08-22T10:12:03.264Z,18.37
2022-08-22T10:13:10.241Z,15.63
2022-08-22T10:14:00.469Z,17.02
2022-08-22T10:15:25.111Z,20.45
2022-08-22T10:16:02.839Z,16.65
2022-08-22T10:16:37.098Z,16.77
2022-08-22T10:17:21.716Z,16.98
2022-08-22T10:18:03.953Z,18.98
2022-08-22T10:18:52.764Z,17.67
2022-08-22T10:19:34.709Z,19.45
2022-08-22T10:20:25.659Z,16.98
2022-08-22T10:21:15.512Z,14.93
2022-08-22T10:22:29.811Z,15.32
2022-08-22T10:23:21.309Z,16.83
2022-08-22T10:23:58.065Z,18.62
2022-08-22T10:24:36.015Z,16.55
2022-08-22T10:25:42.272Z,16.90
2022-08-22T10:26:22.822Z,15.10
2022-08-22T10:27:08.812Z,13.27
2022-08-22T10:27:46.687Z,14.23